createdAt,value
2023-11-27T00:01:05.802Z,-0.77
2023-11-27T00:03:33.571Z,-0.87
2023-11-27T00:06:01.308Z,-0.83
2023-11-27T00:08:30.051Z,-0.94
2023-11-27T00:11:00.153Z,-0.96
2023-11-27T00:13:29.147Z,-0.62
2023-11-27T00:15:56.802Z,-0.89
2023-11-27T00:18:24.541Z,-1.23
2023-11-27T00:20:53.181Z,-1.34
2023-11-27T00:23:25.419Z,-1.14
2023-11-27T00:25:53.198Z,-1.21
2023-11-27T00:28:20.846Z,-0.99
2023-11-27T00:30:53.245Z,-0.36
2023-11-27T00:33:21.743Z,-0.53
2023-11-27T00:35:49.988Z,-0.09
2023-11-27T00:38:17.843Z,-0.21
2023-11-27T00:40:49.038Z,-0.59
2023-11-27T00:43:17.355Z,-0.47
2023-11-27T00:45:45.204Z,-0.41
2023-11-27T00:48:13.583Z,-0.83
2023-11-27T00:50:41.429Z,-1.14
2023-11-27T00:53:09.083Z,-1.13
2023-11-27T00:55:37.123Z,-1.07
2023-11-27T00:58:04.838Z,-0.95
2023-11-27T01:00:32.566Z,-0.62
2023-11-27T01:03:00.323Z,-0.44
2023-11-27T01:05:28.503Z,-0.59
2023-11-27T01:07:56.260Z,-0.60
2023-11-27T01:10:26.609Z,-0.57
2023-11-27T01:12:55.205Z,-0.48
2023-11-27T01:15:23.063Z,-1.10
2023-11-27T01:17:50.955Z,-1.13
2023-11-27T01:20:21.027Z,-1.31
2023-11-27T01:22:48.741Z,-1.30
2023-11-27T01:25:20.093Z,-1.21
2023-11-27T01:27:48.649Z,-1.10
2023-11-27T01:30:20.035Z,-1.18
2023-11-27T01:32:47.822Z,-1.15
2023-11-27T01:35:15.584Z,-0.82
2023-11-27T01:37:43.296Z,-0.65
2023-11-27T01:40:11.638Z,-0.32
2023-11-27T01:42:39.525Z,-0.65
2023-11-27T01:45:08.203Z,-0.87
2023-11-27T01:47:37.067Z,-0.64
2023-11-27T01:50:07.209Z,-0.53
2023-11-27T01:52:36.528Z,-0.38
2023-11-27T01:55:04.714Z,-0.50
2023-11-27T01:57:32.678Z,-0.32
2023-11-27T02:00:03.117Z,-0.41
2023-11-27T02:02:48.619Z,-0.55
2023-11-27T02:05:19.807Z,-0.73
2023-11-27T02:07:47.599Z,-0.87
2023-11-27T02:10:18.899Z,-1.05
2023-11-27T02:12:46.590Z,-0.69
2023-11-27T02:15:14.799Z,-0.85
2023-11-27T02:17:42.479Z,-1.00
2023-11-27T02:20:12.281Z,-0.64
2023-11-27T02:22:39.915Z,-0.59
2023-11-27T02:25:08.423Z,-0.77
2023-11-27T02:27:37.476Z,-0.77
2023-11-27T02:30:05.771Z,-1.02
2023-11-27T02:32:33.998Z,-0.77
2023-11-27T02:35:01.724Z,-0.64
2023-11-27T02:37:33.542Z,-0.71
2023-11-27T02:40:02.291Z,-0.69
2023-11-27T02:42:30.080Z,-0.50
2023-11-27T02:44:58.185Z,-0.43
2023-11-27T02:47:27.936Z,-0.26
2023-11-27T02:49:55.726Z,-0.43
2023-11-27T02:52:23.411Z,-0.17
2023-11-27T02:54:52.386Z,-0.02
2023-11-27T02:57:20.661Z,-0.16
2023-11-27T02:59:48.315Z,0.13
2023-11-27T03:02:16.182Z,0.02
2023-11-27T03:04:46.383Z,0.12
2023-11-27T03:07:14.388Z,-0.13
2023-11-27T03:09:43.943Z,0.08
2023-11-27T03:12:12.251Z,-0.20
2023-11-27T03:14:39.987Z,0.00
2023-11-27T03:17:07.688Z,-0.07
2023-11-27T03:19:47.600Z,-0.39
2023-11-27T03:22:21.921Z,-0.49
2023-11-27T03:24:49.712Z,-0.18
2023-11-27T03:27:17.434Z,-0.35
2023-11-27T03:29:45.157Z,-0.05
2023-11-27T03:32:12.872Z,0.22
2023-11-27T03:34:40.677Z,0.33
2023-11-27T03:37:11.406Z,-0.09
2023-11-27T03:39:39.183Z,-0.33
2023-11-27T03:42:07.192Z,-0.83
2023-11-27T03:44:34.819Z,-0.88
2023-11-27T03:47:02.553Z,-1.02
2023-11-27T03:49:30.210Z,-0.74
2023-11-27T03:51:57.984Z,-0.54
2023-11-27T03:54:25.921Z,-0.69
2023-11-27T03:56:53.608Z,-0.40
2023-11-27T03:59:22.034Z,-0.73
2023-11-27T04:01:49.882Z,-0.39
2023-11-27T04:04:17.985Z,-0.35
2023-11-27T04:06:48.686Z,-0.57
2023-11-27T04:09:20.122Z,-0.60
2023-11-27T04:11:49.912Z,-0.31
2023-11-27T04:14:17.763Z,-0.32
2023-11-27T04:16:45.566Z,-0.44
2023-11-27T04:19:13.539Z,-0.29
2023-11-27T04:21:41.450Z,0.07
2023-11-27T04:24:09.224Z,0.17
2023-11-27T04:26:37.044Z,0.29
2023-11-27T04:29:06.937Z,0.10
2023-11-27T04:31:34.918Z,-0.58
2023-11-27T04:34:02.865Z,-0.77
2023-11-27T04:36:30.525Z,-0.55
2023-11-27T04:38:58.287Z,-0.19
2023-11-27T04:41:25.971Z,-0.07
2023-11-27T04:43:53.629Z,-0.03
2023-11-27T04:46:21.468Z,0.32
2023-11-27T04:48:49.502Z,0.78
2023-11-27T04:51:17.370Z,0.58
2023-11-27T04:53:45.113Z,0.44
2023-11-27T04:56:12.911Z,0.64
2023-11-27T04:58:40.607Z,0.70
2023-11-27T05:01:08.362Z,0.91
2023-11-27T05:03:36.252Z,0.86
2023-11-27T05:06:05.003Z,0.63
2023-11-27T05:08:32.719Z,0.86
2023-11-27T05:11:00.427Z,1.20
2023-11-27T05:13:30.535Z,1.30
2023-11-27T05:15:58.217Z,1.30
2023-11-27T05:18:25.878Z,0.59
2023-11-27T05:20:53.760Z,0.70
2023-11-27T05:23:21.376Z,0.82
2023-11-27T05:25:52.149Z,1.00
2023-11-27T05:28:19.809Z,1.28
2023-11-27T05:30:49.937Z,1.33
2023-11-27T05:33:21.050Z,1.47
2023-11-27T05:35:48.769Z,1.74
2023-11-27T05:38:16.485Z,1.52
2023-11-27T06:25:19.297Z,0.99
2023-11-27T06:27:49.963Z,0.97
2023-11-27T06:30:22.697Z,1.15
2023-11-27T06:32:50.390Z,1.21
2023-11-27T06:35:18.526Z,1.14
2023-11-27T06:37:46.221Z,1.19
2023-11-27T06:40:18.311Z,1.47
2023-11-27T06:42:48.380Z,1.80
2023-11-27T06:45:18.779Z,1.32
2023-11-27T06:47:46.474Z,1.41
2023-11-27T06:50:14.216Z,1.54
2023-11-27T06:52:41.786Z,1.77
2023-11-27T06:55:15.190Z,1.55
2023-11-27T06:57:42.871Z,2.04
2023-11-27T07:00:12.207Z,1.76
2023-11-27T07:02:40.001Z,1.75
2023-11-27T07:05:08.158Z,1.46
2023-11-27T07:07:35.935Z,1.42
2023-11-27T07:10:30.448Z,1.52
2023-11-27T07:12:58.222Z,1.57
2023-11-27T07:15:51.100Z,1.76
2023-11-27T07:18:20.743Z,1.71
2023-11-27T07:20:50.244Z,1.99
2023-11-27T07:23:18.006Z,2.10
2023-11-27T07:26:16.629Z,2.32
2023-11-27T07:29:18.511Z,2.06
2023-11-27T07:31:46.288Z,2.09
2023-11-27T07:34:15.307Z,2.29
2023-11-27T07:36:42.947Z,2.73
2023-11-27T07:39:12.035Z,2.54
2023-11-27T07:41:40.260Z,2.52
2023-11-27T07:44:16.575Z,2.74
2023-11-27T07:46:44.309Z,3.19
2023-11-27T07:49:12.097Z,3.09
2023-11-27T07:51:39.670Z,2.44
2023-11-27T07:54:07.411Z,2.41
2023-11-27T07:56:35.016Z,2.58
2023-11-27T07:59:02.597Z,2.79
2023-11-27T08:01:30.246Z,3.09
2023-11-27T08:03:59.133Z,3.11
2023-11-27T08:06:27.082Z,2.82
2023-11-27T08:08:55.488Z,3.17
2023-11-27T08:11:34.236Z,2.81
2023-11-27T08:14:02.322Z,2.89
2023-11-27T08:16:30.367Z,3.03
2023-11-27T08:18:58.092Z,3.25
2023-11-27T08:21:26.353Z,3.63
2023-11-27T08:23:55.435Z,3.52
2023-11-27T08:26:24.022Z,3.49
2023-11-27T08:28:51.552Z,3.92
2023-11-27T08:31:29.471Z,3.81
2023-11-27T08:33:57.193Z,4.05
2023-11-27T08:36:29.070Z,3.62
2023-11-27T08:39:32.082Z,3.85
2023-11-27T08:42:00.278Z,4.45
2023-11-27T08:44:28.151Z,4.40
2023-11-27T08:47:04.971Z,4.46
2023-11-27T08:49:32.828Z,4.51
2023-11-27T08:52:01.021Z,4.09
2023-11-27T08:54:33.996Z,4.22
2023-11-27T09:06:36.905Z,4.91
2023-11-27T10:38:12.765Z,6.32
2023-11-27T10:41:09.755Z,5.89
2023-11-27T11:41:08.929Z,6.76
2023-11-27T11:43:53.373Z,6.78
2023-11-27T11:51:01.636Z,6.77
2023-11-27T11:54:14.284Z,7.01
2023-11-27T11:56:48.952Z,6.66
2023-11-27T12:00:36.314Z,6.64
2023-11-27T12:03:06.868Z,6.62
2023-11-27T12:05:38.687Z,6.98
2023-11-27T12:08:06.800Z,6.99
2023-11-27T12:10:42.106Z,6.82
2023-11-27T12:13:16.414Z,6.70
2023-11-27T12:16:24.524Z,6.84
2023-11-27T12:18:52.820Z,6.72
2023-11-27T12:21:53.943Z,6.33
2023-11-27T12:30:59.620Z,6.46
2023-11-27T12:32:04.603Z,6.64
2023-11-27T12:32:11.869Z,6.75
2023-11-27T12:48:36.602Z,6.24
2023-11-27T13:07:20.936Z,6.61
2023-11-27T13:09:48.723Z,6.97
2023-11-27T13:12:27.067Z,6.92
2023-11-27T13:18:48.025Z,7.22
2023-11-27T13:21:24.795Z,7.14
2023-11-27T13:21:51.927Z,6.89
2023-11-27T13:23:55.673Z,6.99
2023-11-27T13:26:30.034Z,6.91
2023-11-27T13:29:01.638Z,6.85
2023-11-27T13:31:34.417Z,6.89
2023-11-27T13:34:33.657Z,6.78
2023-11-27T13:37:42.752Z,6.78
2023-11-27T13:40:12.859Z,6.63
2023-11-27T13:43:24.070Z,6.56
2023-11-27T13:49:31.879Z,6.63
2023-11-27T13:52:13.290Z,6.80
2023-11-27T13:54:59.827Z,6.67
2023-11-27T14:07:53.228Z,6.41
2023-11-27T14:14:45.474Z,6.40
2023-11-27T14:14:51.764Z,6.72
2023-11-27T14:18:23.039Z,6.56
2023-11-27T14:21:44.754Z,6.57
2023-11-27T14:25:25.052Z,6.49
2023-11-27T14:28:32.126Z,5.95
2023-11-27T14:31:03.069Z,6.10
2023-11-27T14:33:32.129Z,6.03
2023-11-27T14:35:59.891Z,5.81
2023-11-27T14:38:28.571Z,6.08
2023-11-27T14:40:58.632Z,6.13
2023-11-27T14:43:26.971Z,6.22
2023-11-27T14:46:00.220Z,6.25
2023-11-27T14:48:33.634Z,6.03
2023-11-27T14:51:02.371Z,6.13
2023-11-27T15:06:21.578Z,5.41
2023-11-27T15:08:55.689Z,5.62
2023-11-27T17:44:06.878Z,4.96
2023-11-27T17:47:22.313Z,5.00
2023-11-27T22:31:29.227Z,3.87
2023-11-27T23:15:42.214Z,3.65
2023-11-27T23:18:38.283Z,3.66
2023-11-27T23:21:06.316Z,3.86
2023-11-27T23:23:41.885Z,3.94
2023-11-27T23:26:09.745Z,3.91
2023-11-27T23:28:39.889Z,3.75
2023-11-27T23:31:12.976Z,4.02
2023-11-27T23:33:43.918Z,3.98
2023-11-27T23:36:14.007Z,4.25
2023-11-27T23:38:42.060Z,4.22
2023-11-27T23:41:16.402Z,4.31
2023-11-27T23:43:51.310Z,4.42
2023-11-27T23:46:21.622Z,4.36
2023-11-27T23:49:00.700Z,3.98
2023-11-27T23:51:31.631Z,3.91
2023-11-27T23:54:03.881Z,3.90
2023-11-27T23:56:37.886Z,4.12
2023-11-27T23:59:23.190Z,4.18
